createdAt,value
2023-02-12T00:02:17.533Z,7.50
2023-02-12T00:05:05.417Z,7.40
2023-02-12T00:07:54.627Z,8.00
2023-02-12T00:10:43.310Z,7.30
2023-02-12T00:13:33.757Z,7.50
2023-02-12T00:16:24.148Z,7.40
2023-02-12T00:19:12.246Z,7.40
2023-02-12T00:22:00.401Z,7.40
2023-02-12T00:24:48.231Z,7.50
2023-02-12T00:27:35.979Z,7.30
2023-02-12T00:30:25.074Z,7.30
2023-02-12T00:33:15.992Z,7.30
2023-02-12T00:36:06.399Z,7.30
2023-02-12T00:38:55.332Z,7.30
2023-02-12T00:41:45.716Z,7.40
2023-02-12T00:44:33.345Z,7.40
2023-02-12T00:47:25.050Z,7.40
2023-02-12T00:50:13.006Z,7.30
2023-02-12T00:53:01.532Z,7.40
2023-02-12T00:55:49.310Z,7.30
2023-02-12T00:58:36.838Z,7.10
2023-02-12T01:01:24.241Z,7.10
2023-02-12T01:04:13.645Z,7.20
2023-02-12T01:07:01.892Z,7.10
2023-02-12T01:09:49.186Z,7.30
2023-02-12T01:12:37.189Z,7.10
2023-02-12T01:15:25.478Z,7.10
2023-02-12T01:18:13.093Z,7.20
2023-02-12T01:21:01.858Z,7.10
2023-02-12T01:23:49.786Z,7.10
2023-02-12T01:26:37.883Z,7.10
2023-02-12T01:29:25.626Z,7.10
2023-02-12T01:32:13.176Z,7.10
2023-02-12T01:35:00.422Z,7.10
2023-02-12T01:37:49.295Z,7.10
2023-02-12T01:40:37.601Z,7.10
2023-02-12T01:43:25.071Z,7.10
2023-02-12T01:46:14.125Z,6.90
2023-02-12T01:49:02.280Z,7.10
2023-02-12T01:51:51.538Z,7.10
2023-02-12T01:54:41.156Z,7.20
2023-02-12T01:57:29.947Z,7.40
2023-02-12T02:00:18.957Z,7.40
2023-02-12T02:03:06.656Z,7.30
2023-02-12T02:05:56.989Z,7.20
2023-02-12T02:08:47.541Z,7.10
2023-02-12T02:11:54.585Z,7.00
2023-02-12T02:14:43.144Z,7.00
2023-02-12T02:17:36.288Z,6.90
2023-02-12T02:20:43.701Z,6.90
2023-02-12T02:23:39.774Z,6.80
2023-02-12T02:26:42.426Z,6.80
2023-02-12T02:29:47.935Z,6.90
2023-02-12T02:32:39.934Z,6.70
2023-02-12T02:35:30.394Z,6.10
2023-02-12T02:38:25.702Z,6.60
2023-02-12T02:41:16.932Z,6.80
2023-02-12T02:44:06.949Z,6.70
2023-02-12T02:46:54.877Z,6.70
2023-02-12T02:49:47.344Z,6.70
2023-02-12T02:52:40.530Z,6.70
2023-02-12T02:55:29.747Z,6.70
2023-02-12T02:58:19.032Z,6.70
2023-02-12T03:01:09.079Z,6.70
2023-02-12T03:03:59.958Z,6.70
2023-02-12T03:06:52.141Z,6.60
2023-02-12T03:09:42.407Z,6.70
2023-02-12T03:12:33.333Z,6.60
2023-02-12T03:15:22.947Z,6.60
2023-02-12T03:18:12.807Z,6.50
2023-02-12T03:21:03.241Z,6.60
2023-02-12T03:23:54.555Z,6.70
2023-02-12T03:26:45.017Z,7.30
2023-02-12T03:29:33.304Z,6.70
2023-02-12T03:32:26.466Z,6.80
2023-02-12T03:35:18.986Z,6.80
2023-02-12T03:38:10.468Z,6.60
2023-02-12T03:41:01.466Z,6.60
2023-02-12T03:43:53.177Z,6.60
2023-02-12T03:46:43.174Z,6.60
2023-02-12T03:49:34.333Z,6.60
2023-02-12T03:52:22.815Z,6.60
2023-02-12T03:55:15.159Z,6.90
2023-02-12T03:58:05.314Z,6.60
2023-02-12T04:00:53.666Z,6.40
2023-02-12T04:03:42.181Z,6.50
2023-02-12T04:06:30.337Z,6.50
2023-02-12T04:09:18.470Z,6.50
2023-02-12T04:12:12.294Z,6.50
2023-02-12T04:15:06.868Z,6.50
2023-02-12T04:17:58.483Z,6.50
2023-02-12T04:20:53.967Z,6.50
2023-02-12T04:23:46.269Z,6.50
2023-02-12T04:26:37.524Z,6.50
2023-02-12T04:29:28.176Z,6.40
2023-02-12T04:32:20.077Z,6.40
2023-02-12T04:35:10.785Z,6.40
2023-02-12T04:38:00.876Z,6.40
2023-02-12T04:40:49.534Z,6.40
2023-02-12T04:43:38.943Z,6.30
2023-02-12T04:46:27.149Z,6.30
2023-02-12T04:49:18.206Z,6.30
2023-02-12T04:52:06.500Z,6.30
2023-02-12T04:54:54.236Z,6.30
2023-02-12T04:57:41.833Z,6.20
2023-02-12T05:00:29.334Z,6.30
2023-02-12T05:03:17.278Z,6.20
2023-02-12T05:06:07.258Z,6.20
2023-02-12T05:08:55.532Z,6.30
2023-02-12T05:11:44.097Z,6.30
2023-02-12T05:14:31.864Z,6.30
2023-02-12T05:17:20.469Z,6.30
2023-02-12T05:20:08.435Z,6.30
2023-02-12T05:22:57.942Z,6.30
2023-02-12T05:25:45.320Z,6.30
2023-02-12T05:28:33.273Z,7.70
2023-02-12T05:31:21.792Z,6.40
2023-02-12T05:34:11.524Z,6.50
2023-02-12T05:36:59.865Z,6.50
2023-02-12T05:39:50.330Z,6.50
2023-02-12T05:42:38.064Z,6.50
2023-02-12T05:45:28.162Z,6.40
2023-02-12T05:48:16.533Z,6.40
2023-02-12T05:51:05.069Z,6.40
2023-02-12T05:53:53.466Z,6.30
2023-02-12T05:56:45.631Z,6.30
2023-02-12T05:59:34.014Z,6.30
2023-02-12T06:02:22.157Z,6.30
2023-02-12T06:05:10.307Z,6.20
2023-02-12T06:07:58.396Z,6.20
2023-02-12T06:10:46.678Z,6.20
2023-02-12T06:13:36.177Z,6.20
2023-02-12T06:16:24.887Z,6.10
2023-02-12T06:19:13.234Z,6.10
2023-02-12T06:22:00.805Z,6.10
2023-02-12T06:24:48.170Z,6.20
2023-02-12T06:27:36.284Z,6.20
2023-02-12T06:30:25.744Z,6.00
2023-02-12T06:33:13.729Z,6.40
2023-02-12T06:36:04.254Z,6.10
2023-02-12T06:38:52.578Z,6.30
2023-02-12T06:41:42.445Z,6.40
2023-02-12T06:44:30.162Z,6.30
2023-02-12T06:47:19.628Z,6.50
2023-02-12T06:50:10.275Z,6.70
2023-02-12T06:52:59.610Z,6.40
2023-02-12T06:55:49.246Z,6.30
2023-02-12T06:58:37.900Z,6.70
2023-02-12T07:01:25.941Z,6.10
2023-02-12T07:04:14.944Z,6.10
2023-02-12T07:07:02.703Z,6.00
2023-02-12T07:09:50.766Z,6.00
2023-02-12T07:12:38.310Z,5.90
2023-02-12T07:15:26.299Z,5.90
2023-02-12T07:18:14.392Z,5.70
2023-02-12T07:21:03.507Z,5.90
2023-02-12T07:23:51.778Z,5.90
2023-02-12T07:26:39.836Z,5.80
2023-02-12T07:29:30.029Z,5.00
2023-02-12T07:32:18.046Z,5.90
2023-02-12T07:35:06.112Z,5.80
2023-02-12T07:37:56.276Z,5.90
2023-02-12T07:40:44.410Z,5.90
2023-02-12T07:43:32.103Z,5.90
2023-02-12T07:46:22.036Z,6.00
2023-02-12T07:49:10.979Z,6.20
2023-02-12T07:51:58.745Z,6.00
2023-02-12T07:54:48.657Z,6.00
2023-02-12T07:57:37.041Z,6.00
2023-02-12T08:00:24.755Z,6.00
2023-02-12T08:03:12.558Z,6.10
2023-02-12T08:06:00.784Z,6.10
2023-02-12T08:08:49.218Z,6.20
2023-02-12T08:11:39.134Z,6.10
2023-02-12T08:14:28.416Z,6.10
2023-02-12T08:17:16.708Z,6.20
2023-02-12T08:20:04.554Z,6.20
2023-02-12T08:22:52.272Z,6.20
2023-02-12T08:25:39.855Z,6.30
2023-02-12T08:28:30.446Z,6.20
2023-02-12T08:31:20.905Z,6.40
2023-02-12T08:34:08.990Z,6.30
2023-02-12T08:36:58.148Z,6.30
2023-02-12T08:39:46.142Z,6.40
2023-02-12T08:42:33.686Z,6.40
2023-02-12T08:45:22.981Z,6.50
2023-02-12T08:48:11.803Z,5.90
2023-02-12T08:51:04.805Z,6.60
2023-02-12T08:53:53.888Z,6.50
2023-02-12T08:56:41.671Z,6.60
2023-02-12T08:59:29.603Z,7.20
2023-02-12T09:02:18.956Z,6.90
2023-02-12T09:05:07.243Z,6.70
2023-02-12T09:07:55.052Z,6.80
2023-02-12T09:10:43.416Z,6.80
2023-02-12T09:13:31.184Z,6.90
2023-02-12T09:16:19.010Z,7.00
2023-02-12T09:19:08.250Z,6.80
2023-02-12T09:21:57.099Z,7.10
2023-02-12T09:24:45.454Z,7.10
2023-02-12T09:27:32.905Z,7.10
2023-02-12T09:30:20.850Z,7.30
2023-02-12T09:33:09.273Z,7.30
2023-02-12T09:36:02.240Z,7.40
2023-02-12T09:38:49.944Z,7.40
2023-02-12T09:41:48.389Z,7.40
2023-02-12T09:44:39.060Z,7.60
2023-02-12T09:47:32.371Z,7.80
2023-02-12T09:50:28.431Z,7.70
2023-02-12T09:53:21.973Z,7.70
2023-02-12T09:56:13.168Z,7.90
2023-02-12T09:59:03.022Z,7.70
2023-02-12T10:01:51.131Z,7.60
2023-02-12T10:04:48.635Z,7.60
2023-02-12T10:07:54.984Z,7.60
2023-02-12T10:10:49.199Z,8.20
2023-02-12T10:13:40.956Z,7.70
2023-02-12T10:16:38.431Z,7.70
2023-02-12T10:19:33.237Z,7.70
2023-02-12T10:22:26.854Z,7.80
2023-02-12T10:25:21.008Z,7.80
2023-02-12T10:28:13.105Z,7.80
2023-02-12T10:31:01.985Z,7.90
2023-02-12T10:33:54.406Z,7.90
2023-02-12T10:36:43.741Z,7.80
2023-02-12T10:39:34.522Z,8.00
2023-02-12T10:42:23.982Z,7.90
2023-02-12T10:45:16.756Z,7.90
2023-02-12T10:48:12.437Z,7.90
2023-02-12T10:51:07.255Z,7.90
2023-02-12T10:53:54.954Z,7.90
2023-02-12T10:56:42.406Z,8.00
2023-02-12T10:59:30.756Z,8.10
2023-02-12T11:02:27.106Z,8.10
2023-02-12T11:05:27.115Z,8.10
2023-02-12T11:08:29.573Z,8.30
2023-02-12T11:11:20.805Z,8.90
2023-02-12T11:14:17.891Z,8.30
2023-02-12T11:17:08.503Z,8.30
2023-02-12T11:20:06.121Z,8.30
2023-02-12T11:22:54.958Z,8.50
2023-02-12T11:25:58.798Z,8.20
2023-02-12T11:28:55.107Z,8.20
2023-02-12T11:31:43.196Z,8.30
2023-02-12T11:34:31.406Z,8.30
2023-02-12T11:37:21.386Z,8.40
2023-02-12T11:40:15.626Z,8.40
2023-02-12T11:43:06.007Z,8.20
2023-02-12T11:45:56.547Z,9.90
2023-02-12T11:48:47.474Z,8.30
2023-02-12T11:51:35.869Z,8.40
2023-02-12T11:54:27.046Z,8.50
2023-02-12T11:57:29.966Z,8.50
2023-02-12T12:00:18.893Z,8.50
2023-02-12T12:03:14.070Z,8.50
2023-02-12T12:06:03.870Z,8.40
2023-02-12T12:08:58.650Z,8.40
2023-02-12T12:11:54.597Z,8.50
2023-02-12T12:14:59.581Z,8.50
2023-02-12T12:18:07.786Z,8.50
2023-02-12T12:20:57.301Z,8.50
2023-02-12T12:23:47.443Z,8.40
2023-02-12T12:26:36.160Z,8.30
2023-02-12T12:29:28.011Z,8.30
2023-02-12T12:32:17.908Z,8.30
2023-02-12T12:35:07.019Z,8.10
2023-02-12T12:37:56.129Z,8.40
2023-02-12T12:40:48.467Z,8.40
2023-02-12T12:43:45.796Z,8.40
2023-02-12T12:46:41.770Z,8.50
2023-02-12T12:49:43.876Z,8.50
2023-02-12T12:52:40.553Z,8.50
2023-02-12T12:55:45.781Z,8.40
2023-02-12T12:58:39.108Z,8.50
2023-02-12T13:01:50.380Z,8.50
2023-02-12T13:04:53.919Z,8.50
2023-02-12T13:07:47.353Z,8.50
2023-02-12T13:10:35.924Z,8.60
2023-02-12T13:13:29.959Z,8.60
2023-02-12T13:16:20.721Z,8.50
2023-02-12T13:19:14.243Z,8.50
2023-02-12T13:22:05.950Z,8.50
2023-02-12T13:24:56.448Z,8.60
2023-02-12T13:27:45.197Z,8.60
2023-02-12T13:30:34.932Z,8.50
2023-02-12T13:33:23.952Z,8.40
2023-02-12T13:36:14.753Z,8.40
2023-02-12T13:39:08.408Z,8.50
2023-02-12T13:42:00.740Z,8.50
2023-02-12T13:44:55.499Z,8.60
2023-02-12T13:47:53.580Z,8.60
2023-02-12T13:50:44.859Z,8.60
2023-02-12T13:53:40.053Z,8.50
2023-02-12T13:56:35.821Z,8.40
2023-02-12T13:59:58.346Z,8.50
2023-02-12T14:02:49.685Z,9.40
2023-02-12T14:05:37.985Z,8.50
2023-02-12T14:08:37.961Z,8.30
2023-02-12T14:11:31.345Z,8.60
2023-02-12T14:14:27.116Z,8.50
2023-02-12T14:17:33.171Z,8.90
2023-02-12T14:20:24.779Z,8.50
2023-02-12T14:23:23.556Z,8.50
2023-02-12T14:26:12.409Z,8.80
2023-02-12T14:29:03.119Z,8.50
2023-02-12T14:31:50.997Z,8.40
2023-02-12T14:34:41.846Z,8.20
2023-02-12T14:37:38.274Z,8.40
2023-02-12T14:40:42.875Z,8.40
2023-02-12T14:43:32.524Z,8.50
2023-02-12T14:46:46.498Z,8.40
2023-02-12T14:49:35.519Z,8.40
2023-02-12T14:52:26.156Z,8.40
2023-02-12T14:55:28.232Z,8.40
2023-02-12T14:58:19.189Z,8.40
2023-02-12T15:01:08.432Z,8.40
2023-02-12T15:03:59.087Z,8.30
2023-02-12T15:06:52.161Z,8.40
2023-02-12T15:09:41.832Z,8.30
2023-02-12T15:12:33.811Z,8.10
2023-02-12T15:15:24.877Z,8.20
2023-02-12T15:18:14.791Z,8.20
2023-02-12T15:21:08.214Z,8.20
2023-02-12T15:24:02.532Z,8.20
2023-02-12T15:26:50.765Z,8.20
2023-02-12T15:29:42.672Z,8.10
2023-02-12T15:32:31.205Z,8.10
2023-02-12T15:35:25.836Z,8.20
2023-02-12T15:38:22.035Z,8.10
2023-02-12T15:41:10.693Z,8.10
2023-02-12T15:43:58.531Z,8.10
2023-02-12T15:46:54.496Z,8.10
2023-02-12T15:49:43.095Z,8.10
2023-02-12T15:52:35.136Z,8.10
2023-02-12T15:55:25.357Z,8.10
2023-02-12T15:58:21.463Z,8.10
2023-02-12T16:01:10.549Z,8.20
2023-02-12T16:03:59.408Z,8.00
2023-02-12T16:06:46.947Z,8.00
2023-02-12T16:09:36.505Z,8.10
2023-02-12T16:12:30.249Z,8.10
2023-02-12T16:15:28.879Z,8.10
2023-02-12T16:18:24.842Z,8.00
2023-02-12T16:21:14.197Z,8.00
2023-02-12T16:24:01.440Z,7.90
2023-02-12T16:26:50.137Z,7.90
2023-02-12T16:29:41.638Z,8.50
2023-02-12T16:32:31.503Z,7.90
2023-02-12T16:35:27.269Z,7.80
2023-02-12T16:38:29.720Z,8.00
2023-02-12T16:41:23.906Z,7.80
2023-02-12T16:44:31.667Z,8.00
2023-02-12T16:47:23.502Z,11.10
2023-02-12T16:50:16.971Z,8.00
2023-02-12T16:53:06.627Z,8.20
2023-02-12T16:55:56.739Z,7.70
2023-02-12T16:58:45.908Z,9.60
2023-02-12T17:01:34.443Z,8.10
2023-02-12T17:04:27.550Z,8.90
2023-02-12T17:07:23.661Z,8.00
2023-02-12T17:10:17.737Z,9.60
2023-02-12T17:13:11.219Z,8.00
2023-02-12T17:16:00.121Z,8.30
2023-02-12T17:18:48.876Z,7.90
2023-02-12T17:21:39.914Z,5.90
2023-02-12T17:24:29.706Z,7.90
2023-02-12T17:27:17.120Z,7.80
2023-02-12T17:30:08.717Z,7.90
2023-02-12T17:32:56.534Z,7.80
2023-02-12T17:35:43.921Z,7.80
2023-02-12T17:38:32.915Z,7.80
2023-02-12T17:41:20.660Z,8.00
2023-02-12T17:44:08.473Z,8.00
2023-02-12T17:46:55.779Z,7.80
2023-02-12T17:49:43.196Z,7.60
2023-02-12T17:52:39.372Z,7.80
2023-02-12T17:55:31.230Z,7.80
2023-02-12T17:58:19.222Z,7.80
2023-02-12T18:01:10.279Z,8.40
2023-02-12T18:03:58.870Z,7.80
2023-02-12T18:06:46.547Z,7.70
2023-02-12T18:09:37.778Z,7.90
2023-02-12T18:12:26.990Z,7.80
2023-02-12T18:15:15.184Z,7.80
2023-02-12T18:18:03.074Z,7.70
2023-02-12T18:20:50.878Z,7.70
2023-02-12T18:23:38.878Z,7.80
2023-02-12T18:26:26.365Z,7.80
2023-02-12T18:29:16.250Z,7.70
2023-02-12T18:32:04.309Z,7.80
2023-02-12T18:34:52.180Z,7.80
2023-02-12T18:37:43.332Z,7.80
2023-02-12T18:40:31.192Z,7.80
2023-02-12T18:43:19.050Z,7.80
2023-02-12T18:46:09.422Z,7.80
2023-02-12T18:48:58.867Z,7.70
2023-02-12T18:51:47.360Z,7.70
2023-02-12T18:54:35.402Z,7.60
2023-02-12T18:57:23.535Z,7.60
2023-02-12T19:00:11.157Z,7.70
2023-02-12T19:03:03.361Z,8.90
2023-02-12T19:05:51.326Z,7.70
2023-02-12T19:08:39.670Z,7.70
2023-02-12T19:11:27.993Z,7.70
2023-02-12T19:14:16.408Z,7.70
2023-02-12T19:17:05.515Z,7.70
2023-02-12T19:19:54.590Z,7.70
2023-02-12T19:22:43.063Z,7.70
2023-02-12T19:25:30.611Z,7.60
2023-02-12T19:28:21.347Z,7.60
2023-02-12T19:31:15.744Z,7.60
2023-02-12T19:34:06.907Z,7.50
2023-02-12T19:36:56.180Z,7.50
2023-02-12T19:39:45.030Z,7.50
2023-02-12T19:42:32.438Z,7.50
2023-02-12T19:45:20.278Z,7.50
2023-02-12T19:48:08.034Z,7.50
2023-02-12T19:50:55.770Z,7.20
2023-02-12T19:53:45.414Z,7.40
2023-02-12T19:56:34.505Z,7.40
2023-02-12T19:59:30.430Z,7.30
2023-02-12T20:02:18.069Z,7.10
2023-02-12T20:05:06.046Z,7.20
2023-02-12T20:07:53.876Z,7.90
2023-02-12T20:10:43.507Z,6.80
2023-02-12T20:13:31.205Z,6.90
2023-02-12T20:16:20.131Z,6.80
2023-02-12T20:19:09.393Z,6.80
2023-02-12T20:21:57.755Z,6.70
2023-02-12T20:24:45.310Z,6.20
2023-02-12T20:27:35.027Z,6.50
2023-02-12T20:30:23.802Z,6.40
2023-02-12T20:33:11.812Z,6.40
2023-02-12T20:35:59.845Z,6.20
2023-02-12T20:38:51.821Z,6.20
2023-02-12T20:41:40.046Z,6.00
2023-02-12T20:44:29.361Z,5.90
2023-02-12T20:47:16.761Z,5.90
2023-02-12T20:50:05.564Z,5.80
2023-02-12T20:52:53.668Z,5.80
2023-02-12T20:55:41.002Z,5.70
2023-02-12T20:58:29.223Z,5.70
2023-02-12T21:01:22.623Z,5.60
2023-02-12T21:04:13.600Z,5.60
2023-02-12T21:07:01.925Z,5.50
2023-02-12T21:09:50.490Z,4.80
2023-02-12T21:12:38.231Z,5.80
2023-02-12T21:15:25.807Z,5.30
2023-02-12T21:18:17.396Z,5.50
2023-02-12T21:21:05.934Z,5.20
2023-02-12T21:23:54.912Z,5.30
2023-02-12T21:26:43.820Z,5.30
2023-02-12T21:29:33.302Z,5.40
2023-02-12T21:32:21.667Z,5.40
2023-02-12T21:35:10.987Z,4.10
2023-02-12T21:37:58.524Z,5.50
2023-02-12T21:40:46.257Z,5.60
2023-02-12T21:43:33.975Z,5.40
2023-02-12T21:46:22.739Z,5.40
2023-02-12T21:49:12.013Z,5.20
2023-02-12T21:52:03.127Z,4.90
2023-02-12T21:54:50.605Z,4.70
2023-02-12T21:57:38.311Z,4.60
2023-02-12T22:00:26.142Z,4.40
2023-02-12T22:03:14.937Z,4.40
2023-02-12T22:06:02.501Z,3.10
2023-02-12T22:08:52.224Z,4.30
2023-02-12T22:11:41.323Z,4.30
2023-02-12T22:14:29.483Z,4.20
2023-02-12T22:17:17.681Z,4.10
2023-02-12T22:20:05.298Z,4.10
2023-02-12T22:22:53.433Z,4.10
2023-02-12T22:25:42.401Z,4.10
2023-02-12T22:28:29.864Z,2.80
2023-02-12T22:31:19.828Z,3.60
2023-02-12T22:34:08.726Z,4.50
2023-02-12T22:36:56.740Z,4.00
2023-02-12T22:39:44.692Z,3.80
2023-02-12T22:42:34.677Z,3.50
2023-02-12T22:45:22.954Z,3.70
2023-02-12T22:48:10.608Z,2.20
2023-02-12T22:50:59.106Z,3.70
2023-02-12T22:53:48.174Z,3.50
2023-02-12T22:56:36.067Z,3.70
2023-02-12T22:59:25.595Z,3.30
2023-02-12T23:02:15.680Z,3.40
2023-02-12T23:05:03.274Z,3.30
2023-02-12T23:07:51.462Z,3.30
2023-02-12T23:10:38.981Z,3.50
2023-02-12T23:13:29.817Z,3.20
2023-02-12T23:16:19.524Z,3.40
2023-02-12T23:19:07.488Z,3.00
2023-02-12T23:21:55.161Z,3.10
2023-02-12T23:24:42.856Z,3.10
2023-02-12T23:27:30.685Z,3.10
2023-02-12T23:30:18.189Z,3.10
2023-02-12T23:33:07.633Z,3.00
2023-02-12T23:35:55.232Z,3.00
2023-02-12T23:38:43.265Z,3.00
2023-02-12T23:41:31.904Z,3.70
2023-02-12T23:44:19.625Z,2.90
2023-02-12T23:47:07.295Z,2.90
2023-02-12T23:49:57.518Z,2.80
2023-02-12T23:52:46.167Z,3.80
2023-02-12T23:55:36.999Z,2.80
2023-02-12T23:58:25.069Z,2.80
